createdAt,value
2022-11-29T00:02:06.168Z,101262.88
2022-11-29T00:04:37.679Z,101254.59
2022-11-29T00:07:09.387Z,101258.75
2022-11-29T00:09:43.177Z,101258.38
2022-11-29T00:12:18.351Z,101256.47
2022-11-29T00:14:49.549Z,101260.47
2022-11-29T00:17:21.392Z,101264.31
2022-11-29T00:19:52.695Z,101261.09
2022-11-29T00:22:25.264Z,101263.72
2022-11-29T00:24:59.280Z,101269.88
2022-11-29T00:27:30.880Z,101263.47
2022-11-29T00:30:02.467Z,101267.94
2022-11-29T00:32:34.418Z,101273.44
2022-11-29T00:35:09.672Z,101268.69
2022-11-29T00:37:41.995Z,101267.81
2022-11-29T00:40:16.208Z,101266.44
2022-11-29T00:42:48.891Z,101269.28
2022-11-29T00:45:20.459Z,101267.69
2022-11-29T00:47:52.505Z,101276.06
2022-11-29T00:50:24.065Z,101266.72
2022-11-29T00:52:55.929Z,101263.81
2022-11-29T00:55:30.092Z,101269.81
2022-11-29T00:58:02.165Z,101265.97
2022-11-29T01:00:33.810Z,101268.88
2022-11-29T01:03:06.065Z,101267.66
2022-11-29T01:05:37.590Z,101271.28
2022-11-29T01:08:09.490Z,101269.09
2022-11-29T01:10:43.837Z,101266.59
2022-11-29T01:13:15.913Z,101262.63
2022-11-29T01:15:47.476Z,101268.69
2022-11-29T01:18:19.110Z,101262.53
2022-11-29T01:20:59.602Z,101264.34
2022-11-29T01:23:32.417Z,101267.63
2022-11-29T01:26:09.884Z,101264.50
2022-11-29T01:28:43.124Z,101264.06
2022-11-29T01:31:16.904Z,101264.47
2022-11-29T01:33:49.405Z,101265.34
2022-11-29T01:36:21.096Z,101264.59
2022-11-29T01:38:53.225Z,101271.63
2022-11-29T01:41:29.248Z,101266.69
2022-11-29T01:44:05.055Z,101272.25
2022-11-29T01:46:39.090Z,101268.28
2022-11-29T01:49:16.011Z,101266.03
2022-11-29T01:51:52.887Z,101263.00
2022-11-29T01:54:25.184Z,101264.41
2022-11-29T01:57:01.911Z,101263.00
2022-11-29T01:59:34.243Z,101266.81
2022-11-29T02:02:10.521Z,101262.66
2022-11-29T02:04:45.334Z,101262.78
2022-11-29T02:07:17.371Z,101258.50
2022-11-29T02:09:49.573Z,101267.69
2022-11-29T02:12:38.077Z,101263.66
2022-11-29T02:15:24.614Z,101264.91
2022-11-29T02:18:08.307Z,101263.00
2022-11-29T02:21:07.196Z,101265.38
2022-11-29T02:24:14.176Z,101267.31
2022-11-29T02:27:15.946Z,101270.44
2022-11-29T02:30:17.593Z,101265.63
2022-11-29T02:33:27.462Z,101272.09
2022-11-29T02:36:19.600Z,101281.84
2022-11-29T02:39:25.104Z,101277.69
2022-11-29T02:42:54.404Z,101277.16
2022-11-29T02:45:47.988Z,101277.88
2022-11-29T02:48:48.880Z,101281.44
2022-11-29T02:51:29.133Z,101283.91
2022-11-29T02:54:07.793Z,101287.66
2022-11-29T02:56:47.133Z,101288.16
2022-11-29T02:59:39.411Z,101289.91
2022-11-29T03:02:23.108Z,101291.31
2022-11-29T03:05:06.421Z,101286.72
2022-11-29T03:07:44.708Z,101286.94
2022-11-29T03:10:29.373Z,101288.16
2022-11-29T03:13:03.061Z,101296.19
2022-11-29T03:15:41.734Z,101291.75
2022-11-29T03:18:31.244Z,101289.66
2022-11-29T03:21:13.547Z,101294.47
2022-11-29T03:23:51.221Z,101296.97
2022-11-29T03:26:27.437Z,101302.78
2022-11-29T03:29:10.156Z,101301.16
2022-11-29T03:31:49.306Z,101305.66
2022-11-29T03:34:28.256Z,101302.81
2022-11-29T03:37:09.438Z,101307.66
2022-11-29T03:39:51.215Z,101301.38
2022-11-29T03:42:28.357Z,101308.22
2022-11-29T03:45:06.733Z,101308.97
2022-11-29T03:47:45.936Z,101316.59
2022-11-29T03:50:23.873Z,101312.28
2022-11-29T03:53:06.327Z,101311.38
2022-11-29T03:55:53.539Z,101312.09
2022-11-29T03:58:39.055Z,101310.97
2022-11-29T04:01:52.955Z,101310.72
2022-11-29T04:05:03.395Z,101308.31
2022-11-29T04:07:51.681Z,101311.72
2022-11-29T04:11:00.338Z,101308.59
2022-11-29T04:14:00.029Z,101307.63
2022-11-29T04:17:01.731Z,101311.88
2022-11-29T04:20:13.997Z,101313.41
2022-11-29T04:23:13.917Z,101313.72
2022-11-29T04:26:15.603Z,101315.94
2022-11-29T04:29:14.425Z,101312.22
2022-11-29T04:32:06.521Z,101316.16
2022-11-29T04:35:10.279Z,101314.59
2022-11-29T04:38:02.420Z,101316.50
2022-11-29T04:40:45.448Z,101325.25
2022-11-29T04:43:36.628Z,101321.56
2022-11-29T04:46:35.360Z,101311.72
2022-11-29T04:49:41.058Z,101319.59
2022-11-29T04:52:35.567Z,101325.16
2022-11-29T04:55:29.225Z,101331.53
2022-11-29T04:58:19.191Z,101333.38
2022-11-29T05:01:03.989Z,101324.00
2022-11-29T05:03:44.151Z,101328.88
2022-11-29T05:06:26.894Z,101334.94
2022-11-29T05:09:07.772Z,101329.59
2022-11-29T05:11:53.444Z,101329.56
2022-11-29T05:14:38.474Z,101327.94
2022-11-29T05:17:35.873Z,101335.97
2022-11-29T05:20:26.415Z,101329.06
2022-11-29T05:23:15.633Z,101341.63
2022-11-29T05:25:54.510Z,101338.06
2022-11-29T05:28:32.591Z,101341.06
2022-11-29T05:31:27.218Z,101346.00
2022-11-29T05:34:34.666Z,101348.44
2022-11-29T05:37:22.141Z,101350.84
2022-11-29T05:40:12.121Z,101357.09
2022-11-29T05:43:04.193Z,101354.59
2022-11-29T05:45:44.033Z,101362.34
2022-11-29T05:48:22.733Z,101369.75
2022-11-29T05:51:08.419Z,101364.88
2022-11-29T05:53:50.373Z,101380.84
2022-11-29T05:56:33.856Z,101369.88
2022-11-29T05:59:11.741Z,101378.31
2022-11-29T06:01:54.236Z,101375.88
2022-11-29T06:04:33.149Z,101379.13
2022-11-29T06:07:16.658Z,101383.50
2022-11-29T06:09:53.862Z,101385.28
2022-11-29T06:12:29.812Z,101385.41
2022-11-29T06:15:31.733Z,101394.47
2022-11-29T06:18:23.947Z,101396.56
2022-11-29T06:21:05.303Z,101395.91
2022-11-29T06:23:59.423Z,101405.88
2022-11-29T06:26:56.284Z,101406.69
2022-11-29T06:29:39.019Z,101407.41
2022-11-29T06:32:25.454Z,101408.41
2022-11-29T06:35:03.781Z,101413.53
2022-11-29T06:37:42.250Z,101413.13
2022-11-29T06:40:19.782Z,101416.38
2022-11-29T06:42:51.611Z,101418.69
2022-11-29T06:45:26.909Z,101418.41
2022-11-29T06:48:04.817Z,101426.44
2022-11-29T06:50:50.853Z,101437.88
2022-11-29T06:53:31.129Z,101427.22
2022-11-29T06:56:12.793Z,101435.09
2022-11-29T06:58:54.646Z,101438.22
2022-11-29T07:01:36.092Z,101444.34
2022-11-29T07:04:45.598Z,101440.19
2022-11-29T07:07:21.805Z,101439.09
2022-11-29T07:09:57.276Z,101442.28
2022-11-29T07:12:33.358Z,101436.50
2022-11-29T07:15:05.391Z,101440.00
2022-11-29T07:17:41.961Z,101444.19
2022-11-29T07:20:24.780Z,101441.38
2022-11-29T07:23:09.068Z,101442.31
2022-11-29T07:25:50.222Z,101449.88
2022-11-29T07:28:43.499Z,101448.13
2022-11-29T07:31:27.515Z,101453.19
2022-11-29T07:34:06.426Z,101448.13
2022-11-29T07:36:48.605Z,101455.84
2022-11-29T07:39:28.725Z,101459.81
2022-11-29T07:42:08.526Z,101463.03
2022-11-29T07:44:55.850Z,101465.53
2022-11-29T07:47:30.092Z,101462.75
2022-11-29T07:50:07.251Z,101467.78
2022-11-29T07:52:39.417Z,101474.00
2022-11-29T07:55:19.176Z,101478.59
2022-11-29T07:57:52.116Z,101477.44
2022-11-29T08:00:27.015Z,101479.34
2022-11-29T08:02:58.805Z,101480.06
2022-11-29T08:05:30.691Z,101479.00
2022-11-29T08:08:03.253Z,101483.19
2022-11-29T08:10:36.824Z,101482.47
2022-11-29T08:13:08.466Z,101484.97
2022-11-29T08:15:47.424Z,101491.00
2022-11-29T08:18:19.220Z,101486.56
2022-11-29T08:20:51.131Z,101485.78
2022-11-29T08:23:22.760Z,101490.41
2022-11-29T08:26:01.398Z,101487.47
2022-11-29T08:28:55.230Z,101497.19
2022-11-29T08:31:30.077Z,101500.63
2022-11-29T08:34:01.712Z,101502.25
2022-11-29T08:36:33.841Z,101495.66
2022-11-29T08:39:09.151Z,101497.00
2022-11-29T08:41:41.969Z,101498.75
2022-11-29T08:44:18.471Z,101500.28
2022-11-29T08:47:05.225Z,101505.13
2022-11-29T08:49:56.754Z,101499.09
2022-11-29T08:52:41.055Z,101499.53
2022-11-29T08:55:12.864Z,101497.59
2022-11-29T08:57:45.082Z,101496.41
2022-11-29T09:00:17.945Z,101498.28
2022-11-29T09:02:52.836Z,101500.31
2022-11-29T09:05:24.166Z,101503.50
2022-11-29T09:07:56.214Z,101508.56
2022-11-29T09:10:28.098Z,101508.03
2022-11-29T09:13:00.020Z,101519.38
2022-11-29T09:15:31.723Z,101510.84
2022-11-29T09:18:07.296Z,101519.97
2022-11-29T09:20:38.964Z,101516.63
2022-11-29T09:23:10.902Z,101518.41
2022-11-29T09:25:42.453Z,101521.94
2022-11-29T09:28:14.522Z,101516.81
2022-11-29T09:30:47.196Z,101520.25
2022-11-29T09:33:21.574Z,101522.41
2022-11-29T09:35:52.806Z,101515.31
2022-11-29T09:38:24.678Z,101516.56
2022-11-29T09:41:02.324Z,101515.91
2022-11-29T09:43:42.656Z,101525.34
2022-11-29T09:46:22.801Z,101520.84
2022-11-29T09:49:32.698Z,101520.13
2022-11-29T09:52:12.018Z,101521.72
2022-11-29T09:54:55.461Z,101520.16
2022-11-29T09:57:28.738Z,101522.69
2022-11-29T10:00:05.497Z,101522.16
2022-11-29T10:02:45.819Z,101524.63
2022-11-29T10:05:28.905Z,101521.16
2022-11-29T10:08:06.219Z,101526.00
2022-11-29T10:10:44.059Z,101529.13
2022-11-29T10:13:23.778Z,101534.97
2022-11-29T10:16:00.337Z,101531.09
2022-11-29T10:18:37.538Z,101525.50
2022-11-29T10:21:17.787Z,101532.31
2022-11-29T10:23:53.139Z,101529.38
2022-11-29T10:26:37.177Z,101530.69
2022-11-29T10:29:09.857Z,101538.09
2022-11-29T10:31:45.218Z,101538.03
2022-11-29T10:34:20.176Z,101549.56
2022-11-29T10:37:00.136Z,101536.66
2022-11-29T10:39:40.188Z,101546.53
2022-11-29T10:42:31.135Z,101545.69
2022-11-29T10:45:03.817Z,101549.44
2022-11-29T10:47:37.145Z,101541.06
2022-11-29T10:50:11.037Z,101544.47
2022-11-29T10:52:46.798Z,101541.56
2022-11-29T10:55:20.592Z,101539.38
2022-11-29T10:58:12.629Z,101549.69
2022-11-29T11:00:57.809Z,101535.16
2022-11-29T11:03:40.552Z,101539.91
2022-11-29T11:06:16.437Z,101545.09
2022-11-29T11:08:55.590Z,101544.69
2022-11-29T11:11:30.590Z,101542.03
2022-11-29T11:14:05.308Z,101545.59
2022-11-29T11:16:37.870Z,101550.16
2022-11-29T11:19:29.760Z,101554.88
2022-11-29T11:22:03.883Z,101546.19
2022-11-29T11:24:44.034Z,101550.66
2022-11-29T11:27:16.440Z,101551.53
2022-11-29T11:29:49.321Z,101547.50
2022-11-29T11:32:23.319Z,101545.81
2022-11-29T11:34:57.563Z,101550.41
2022-11-29T11:37:32.081Z,101547.81
2022-11-29T11:40:29.537Z,101556.16
2022-11-29T11:43:05.563Z,101553.22
2022-11-29T11:45:39.853Z,101550.63
2022-11-29T11:48:17.960Z,101551.28
2022-11-29T11:50:56.809Z,101558.31
2022-11-29T11:53:36.376Z,101564.25
2022-11-29T11:56:16.362Z,101557.22
2022-11-29T11:58:53.083Z,101552.72
2022-11-29T12:01:32.721Z,101556.38
2022-11-29T12:04:08.561Z,101558.94
2022-11-29T12:06:54.924Z,101557.94
2022-11-29T12:09:36.243Z,101563.31
2022-11-29T12:12:18.083Z,101554.53
2022-11-29T12:14:59.283Z,101566.94
2022-11-29T12:17:38.602Z,101555.88
2022-11-29T12:20:22.763Z,101562.41
2022-11-29T12:23:09.852Z,101560.50
2022-11-29T12:25:48.387Z,101569.63
2022-11-29T12:28:26.770Z,101574.88
2022-11-29T12:31:09.709Z,101575.69
2022-11-29T12:33:52.523Z,101576.06
2022-11-29T12:36:37.241Z,101579.34
2022-11-29T12:39:28.763Z,101579.59
2022-11-29T12:42:07.130Z,101587.84
2022-11-29T12:44:54.603Z,101585.66
2022-11-29T12:47:42.440Z,101593.34
2022-11-29T12:50:29.922Z,101596.97
2022-11-29T12:53:14.241Z,101593.19
2022-11-29T12:55:57.441Z,101598.19
2022-11-29T12:58:45.640Z,101597.06
2022-11-29T13:01:28.961Z,101596.44
2022-11-29T13:04:13.125Z,101588.88
2022-11-29T13:06:53.444Z,101598.75
2022-11-29T13:09:47.990Z,101611.06
2022-11-29T13:12:29.550Z,101600.19
2022-11-29T13:15:10.939Z,101604.69
2022-11-29T13:17:50.797Z,101610.31
2022-11-29T13:20:35.208Z,101611.66
2022-11-29T13:23:17.932Z,101611.56
2022-11-29T13:25:54.735Z,101611.03
2022-11-29T13:28:30.740Z,101612.72
2022-11-29T13:31:08.060Z,101610.69
2022-11-29T13:33:57.429Z,101611.28
2022-11-29T13:36:40.728Z,101613.84
2022-11-29T13:39:29.170Z,101621.41
2022-11-29T13:42:08.302Z,101616.41
2022-11-29T13:44:48.427Z,101622.84
2022-11-29T13:47:22.113Z,101627.94
2022-11-29T13:50:02.557Z,101623.34
2022-11-29T13:52:45.788Z,101622.16
2022-11-29T13:55:30.478Z,101617.69
2022-11-29T13:58:18.041Z,101620.84
2022-11-29T14:00:55.846Z,101623.22
2022-11-29T14:03:35.408Z,101630.53
2022-11-29T14:06:21.645Z,101627.72
2022-11-29T14:09:23.076Z,101631.53
2022-11-29T14:12:02.740Z,101632.53
2022-11-29T14:14:40.563Z,101634.84
2022-11-29T14:17:38.162Z,101633.31
2022-11-29T14:20:54.506Z,101640.75
2022-11-29T14:23:46.985Z,101640.13
2022-11-29T14:26:39.801Z,101642.63
2022-11-29T14:29:56.130Z,101644.06
2022-11-29T14:32:41.549Z,101642.88
2022-11-29T14:35:25.932Z,101648.03
2022-11-29T14:38:08.230Z,101640.78
2022-11-29T14:40:53.250Z,101641.28
2022-11-29T14:43:33.288Z,101642.41
2022-11-29T14:46:12.085Z,101650.00
2022-11-29T14:48:48.731Z,101644.34
2022-11-29T14:51:23.254Z,101652.59
2022-11-29T14:54:08.289Z,101651.56
2022-11-29T14:56:45.859Z,101660.56
2022-11-29T14:59:44.213Z,101655.66
2022-11-29T15:02:35.864Z,101656.63
2022-11-29T15:05:18.169Z,101660.66
2022-11-29T15:07:56.604Z,101659.66
2022-11-29T15:13:32.931Z,101664.78
2022-11-29T15:16:25.663Z,101671.41
2022-11-29T15:19:32.251Z,101669.13
2022-11-29T15:22:21.412Z,101674.69
2022-11-29T15:24:58.771Z,101669.19
2022-11-29T15:27:31.050Z,101671.31
2022-11-29T15:30:22.131Z,101669.59
2022-11-29T15:32:54.289Z,101677.59
2022-11-29T15:35:27.128Z,101682.44
2022-11-29T15:37:59.851Z,101692.22
2022-11-29T15:40:41.851Z,101690.31
2022-11-29T15:43:27.330Z,101686.09
2022-11-29T15:46:06.625Z,101688.81
2022-11-29T15:48:39.615Z,101685.72
2022-11-29T15:51:22.609Z,101688.44
2022-11-29T15:54:12.096Z,101690.94
2022-11-29T15:56:52.450Z,101698.91
2022-11-29T15:59:34.210Z,101699.59
2022-11-29T16:02:24.334Z,101713.84
2022-11-29T16:05:04.323Z,101713.19
2022-11-29T16:07:37.642Z,101709.53
2022-11-29T16:10:16.087Z,101711.94
2022-11-29T16:12:56.858Z,101717.44
2022-11-29T16:15:35.102Z,101719.59
2022-11-29T16:18:16.622Z,101715.56
2022-11-29T16:21:04.396Z,101721.66
2022-11-29T16:23:36.935Z,101727.03
2022-11-29T16:26:16.023Z,101731.81
2022-11-29T16:28:50.809Z,101723.59
2022-11-29T16:31:25.309Z,101730.97
2022-11-29T16:34:00.312Z,101726.66
2022-11-29T16:36:31.576Z,101729.03
2022-11-29T16:39:08.969Z,101738.22
2022-11-29T16:41:44.264Z,101742.13
2022-11-29T16:45:03.463Z,101742.22
2022-11-29T16:47:49.502Z,101747.38
2022-11-29T16:50:25.215Z,101747.13
2022-11-29T16:52:57.428Z,101745.72
2022-11-29T16:55:28.995Z,101747.44
2022-11-29T16:58:03.050Z,101747.72
2022-11-29T17:00:38.475Z,101747.88
2022-11-29T17:03:09.565Z,101757.22
2022-11-29T17:05:45.703Z,101746.22
2022-11-29T17:08:16.898Z,101753.16
2022-11-29T17:10:48.745Z,101752.28
2022-11-29T17:13:22.263Z,101751.75
2022-11-29T17:15:53.890Z,101760.84
2022-11-29T17:18:28.089Z,101759.75
2022-11-29T17:21:02.330Z,101765.63
2022-11-29T17:23:35.403Z,101758.69
2022-11-29T17:26:07.770Z,101761.41
2022-11-29T17:28:43.006Z,101759.44
2022-11-29T17:31:21.052Z,101759.25
2022-11-29T17:33:52.624Z,101763.41
2022-11-29T17:36:27.608Z,101764.91
2022-11-29T17:38:59.331Z,101760.41
2022-11-29T17:41:33.301Z,101760.28
2022-11-29T17:44:04.944Z,101758.34
2022-11-29T17:46:39.466Z,101761.25
2022-11-29T17:49:12.670Z,101769.78
2022-11-29T17:51:52.128Z,101765.03
2022-11-29T17:54:29.077Z,101769.13
2022-11-29T17:57:01.836Z,101778.03
2022-11-29T17:59:33.839Z,101777.47
2022-11-29T18:02:07.419Z,101772.88
2022-11-29T18:04:42.613Z,101784.19
2022-11-29T18:07:18.440Z,101778.56
2022-11-29T18:09:52.295Z,101774.91
2022-11-29T18:12:24.794Z,101782.59
2022-11-29T18:14:56.613Z,101783.94
2022-11-29T18:17:28.511Z,101779.44
2022-11-29T18:20:00.246Z,101784.97
2022-11-29T18:22:35.233Z,101792.31
2022-11-29T18:25:37.754Z,101794.16
2022-11-29T18:28:02.501Z,101791.69
2022-11-29T18:30:33.892Z,101797.34
2022-11-29T18:33:05.876Z,101800.44
2022-11-29T18:35:38.325Z,101792.84
2022-11-29T18:38:16.133Z,101799.53
2022-11-29T18:40:48.793Z,101792.75
2022-11-29T18:43:20.894Z,101798.19
2022-11-29T18:45:52.714Z,101794.75
2022-11-29T18:48:24.708Z,101801.28
2022-11-29T18:50:56.285Z,101806.47
2022-11-29T18:53:32.307Z,101800.13
2022-11-29T18:56:05.653Z,101808.34
2022-11-29T18:58:38.319Z,101815.38
2022-11-29T19:01:12.541Z,101805.66
2022-11-29T19:03:49.313Z,101807.66
2022-11-29T19:06:22.571Z,101811.44
2022-11-29T19:09:01.370Z,101811.13
2022-11-29T19:11:35.615Z,101810.66
2022-11-29T19:14:13.493Z,101813.78
2022-11-29T19:16:48.320Z,101810.59
2022-11-29T19:19:22.689Z,101807.16
2022-11-29T19:21:54.154Z,101812.47
2022-11-29T19:24:29.333Z,101811.16
2022-11-29T19:27:01.538Z,101817.75
2022-11-29T19:29:53.254Z,101806.03
2022-11-29T19:32:25.236Z,101816.31
2022-11-29T19:34:57.575Z,101814.50
2022-11-29T19:37:29.255Z,101817.25
2022-11-29T19:40:04.428Z,101812.84
2022-11-29T19:42:37.849Z,101808.94
2022-11-29T19:45:18.880Z,101821.22
2022-11-29T19:47:51.069Z,101818.50
2022-11-29T19:50:24.649Z,101821.31
2022-11-29T19:52:57.312Z,101817.66
2022-11-29T19:55:39.379Z,101824.88
2022-11-29T19:58:13.798Z,101822.84
2022-11-29T20:00:45.560Z,101817.81
2022-11-29T20:03:17.352Z,101825.94
2022-11-29T20:05:58.215Z,101825.38
2022-11-29T20:08:30.106Z,101840.31
2022-11-29T20:11:12.651Z,101822.75
2022-11-29T20:13:50.091Z,101827.72
2022-11-29T20:19:49.266Z,101836.81
2022-11-29T20:22:21.940Z,101835.91
2022-11-29T20:24:56.497Z,101831.72
2022-11-29T20:27:31.389Z,101841.19
2022-11-29T20:30:03.833Z,101837.19
2022-11-29T20:32:38.411Z,101833.84
2022-11-29T20:35:12.576Z,101837.25
2022-11-29T20:38:15.533Z,101840.47
2022-11-29T20:41:02.667Z,101844.75
2022-11-29T20:43:47.754Z,101846.19
2022-11-29T20:46:20.564Z,101846.44
2022-11-29T20:48:53.513Z,101847.81
2022-11-29T20:51:30.623Z,101844.72
2022-11-29T20:54:03.112Z,101854.34
2022-11-29T20:56:35.393Z,101857.16
2022-11-29T20:59:10.556Z,101852.44
2022-11-29T21:01:42.735Z,101854.25
2022-11-29T21:04:18.841Z,101860.22
2022-11-29T21:06:53.879Z,101858.41
2022-11-29T21:09:28.428Z,101862.16
2022-11-29T21:12:01.631Z,101862.59
2022-11-29T21:14:37.750Z,101871.00
2022-11-29T21:17:11.697Z,101861.28
2022-11-29T21:19:44.900Z,101868.19
2022-11-29T21:22:24.974Z,101864.94
2022-11-29T21:25:06.653Z,101862.56
2022-11-29T21:27:39.733Z,101871.72
2022-11-29T21:30:22.083Z,101878.47
2022-11-29T21:32:55.222Z,101870.97
2022-11-29T21:35:27.581Z,101875.06
2022-11-29T21:38:02.713Z,101872.63
2022-11-29T21:40:35.275Z,101878.03
2022-11-29T21:43:07.393Z,101887.81
2022-11-29T21:45:42.455Z,101879.06
2022-11-29T21:48:26.612Z,101880.91
2022-11-29T21:50:59.492Z,101877.72
2022-11-29T21:53:31.592Z,101879.19
2022-11-29T21:56:05.890Z,101880.47
2022-11-29T21:58:39.571Z,101882.91
2022-11-29T22:01:18.020Z,101889.53
2022-11-29T22:03:50.875Z,101886.31
2022-11-29T22:06:24.512Z,101890.00
2022-11-29T22:08:56.571Z,101880.81
2022-11-29T22:11:35.981Z,101884.47
2022-11-29T22:14:19.532Z,101887.88
2022-11-29T22:16:56.873Z,101880.41
2022-11-29T22:19:31.179Z,101885.66
2022-11-29T22:22:06.380Z,101893.66
2022-11-29T22:24:40.833Z,101885.94
2022-11-29T22:27:13.357Z,101885.66
2022-11-29T22:29:45.694Z,101882.19
2022-11-29T22:32:20.873Z,101895.03
2022-11-29T22:34:53.057Z,101892.78
2022-11-29T22:37:25.541Z,101890.22
2022-11-29T22:39:57.963Z,101897.06
2022-11-29T22:42:30.473Z,101891.44
2022-11-29T22:45:04.342Z,101888.31
2022-11-29T22:47:39.532Z,101888.75
2022-11-29T22:50:13.213Z,101896.31
2022-11-29T22:52:45.816Z,101906.16
2022-11-29T22:55:17.992Z,101901.53
2022-11-29T22:57:50.531Z,101904.59
2022-11-29T23:00:22.991Z,101896.31
2022-11-29T23:02:59.754Z,101909.03
2022-11-29T23:05:32.537Z,101901.13
2022-11-29T23:08:05.052Z,101907.41
2022-11-29T23:10:37.292Z,101914.38
2022-11-29T23:13:09.552Z,101910.84
2022-11-29T23:15:41.853Z,101907.44
2022-11-29T23:18:17.193Z,101901.44
2022-11-29T23:20:49.254Z,101904.16
2022-11-29T23:23:22.089Z,101902.22
2022-11-29T23:25:54.213Z,101905.09
2022-11-29T23:28:26.894Z,101901.03
2022-11-29T23:30:59.533Z,101901.75
2022-11-29T23:33:34.773Z,101911.41
2022-11-29T23:36:10.102Z,101903.28
2022-11-29T23:38:42.656Z,101891.63
2022-11-29T23:41:16.733Z,101894.41
2022-11-29T23:43:49.273Z,101896.75
2022-11-29T23:46:37.393Z,101902.00
2022-11-29T23:49:12.451Z,101903.06
2022-11-29T23:51:44.592Z,101901.56
2022-11-29T23:54:17.234Z,101898.59
2022-11-29T23:56:49.441Z,101903.59
2022-11-29T23:59:22.265Z,101898.47
